createdAt,value
2019-03-04T00:01:10.423Z,80.30
2019-03-04T00:03:36.747Z,80.90
2019-03-04T00:06:03.088Z,81.30
2019-03-04T00:08:29.348Z,81.80
2019-03-04T00:10:55.585Z,82.10
2019-03-04T00:13:21.802Z,83.00
2019-03-04T00:15:48.146Z,82.90
2019-03-04T00:18:14.279Z,83.20
2019-03-04T00:20:40.554Z,82.70
2019-03-04T00:23:06.872Z,82.10
2019-03-04T00:25:33.110Z,82.20
2019-03-04T00:27:59.340Z,80.90
2019-03-04T00:30:25.674Z,80.50
2019-03-04T00:32:51.803Z,79.70
2019-03-04T00:35:17.985Z,79.60
2019-03-04T00:37:44.247Z,80.20
2019-03-04T00:40:12.189Z,79.10
2019-03-04T00:42:38.541Z,78.80
2019-03-04T00:45:06.928Z,78.50
2019-03-04T00:47:33.198Z,78.50
2019-03-04T00:49:59.410Z,78.90
2019-03-04T00:52:25.677Z,78.80
2019-03-04T00:54:51.910Z,79.00
2019-03-04T00:57:18.193Z,79.10
2019-03-04T00:59:44.412Z,79.50
2019-03-04T01:02:10.687Z,79.60
2019-03-04T01:04:37.028Z,79.40
2019-03-04T01:07:03.462Z,79.80
2019-03-04T01:09:29.699Z,80.10
2019-03-04T01:11:55.816Z,80.00
2019-03-04T01:14:22.004Z,80.50
2019-03-04T01:16:48.295Z,80.60
2019-03-04T01:19:14.543Z,80.30
2019-03-04T01:21:40.975Z,80.30
2019-03-04T01:24:07.242Z,80.50
2019-03-04T01:26:33.485Z,80.00
2019-03-04T01:28:59.710Z,80.00
2019-03-04T01:31:26.054Z,80.30
2019-03-04T01:33:52.391Z,79.70
2019-03-04T01:36:18.633Z,79.80
2019-03-04T01:38:45.047Z,79.60
2019-03-04T01:41:11.248Z,79.90
2019-03-04T01:43:37.454Z,80.20
2019-03-04T01:46:03.813Z,80.00
2019-03-04T01:48:30.039Z,79.70
2019-03-04T01:50:56.280Z,79.30
2019-03-04T01:53:22.510Z,78.80
2019-03-04T01:55:48.669Z,78.60
2019-03-04T01:58:14.955Z,78.60
2019-03-04T02:00:41.477Z,78.40
2019-03-04T02:03:07.869Z,78.80
2019-03-04T02:05:34.127Z,78.00
2019-03-04T02:08:00.569Z,78.20
2019-03-04T02:10:26.908Z,77.50
2019-03-04T02:12:53.231Z,78.10
2019-03-04T02:15:19.796Z,77.80
2019-03-04T02:17:46.360Z,78.00
2019-03-04T02:20:14.486Z,79.00
2019-03-04T02:22:40.942Z,79.70
2019-03-04T02:25:32.931Z,79.50
2019-03-04T02:27:59.146Z,81.30
2019-03-04T02:30:26.675Z,81.90
2019-03-04T02:32:53.125Z,82.30
2019-03-04T02:35:19.457Z,82.50
2019-03-04T02:37:45.862Z,83.10
2019-03-04T02:40:13.062Z,82.50
2019-03-04T02:42:39.264Z,82.40
2019-03-04T02:45:12.306Z,82.10
2019-03-04T02:47:38.680Z,81.90
2019-03-04T02:50:06.042Z,82.00
2019-03-04T02:52:32.272Z,82.10
2019-03-04T02:54:58.549Z,82.10
2019-03-04T02:57:24.761Z,81.50
2019-03-04T02:59:51.097Z,81.10
2019-03-04T03:02:17.341Z,80.70
2019-03-04T03:04:43.758Z,81.20
2019-03-04T03:07:09.893Z,81.70
2019-03-04T03:09:36.132Z,81.90
2019-03-04T03:12:02.494Z,81.60
2019-03-04T03:14:28.849Z,81.20
2019-03-04T03:16:55.107Z,81.10
2019-03-04T03:19:21.393Z,80.60
2019-03-04T03:21:47.648Z,79.80
2019-03-04T03:24:13.990Z,79.60
2019-03-04T03:26:40.250Z,79.40
2019-03-04T03:29:06.462Z,78.70
2019-03-04T03:31:32.721Z,78.70
2019-03-04T03:33:59.076Z,78.30
2019-03-04T03:36:25.316Z,78.60
2019-03-04T03:38:51.647Z,79.30
2019-03-04T03:41:17.851Z,79.20
2019-03-04T03:43:44.051Z,79.20
2019-03-04T03:46:10.454Z,78.80
2019-03-04T03:48:36.701Z,78.60
2019-03-04T03:51:03.013Z,78.40
2019-03-04T03:53:29.259Z,78.00
2019-03-04T03:55:55.582Z,77.90
2019-03-04T03:58:24.818Z,78.20
2019-03-04T04:00:49.991Z,78.60
2019-03-04T04:03:16.307Z,78.70
2019-03-04T04:05:42.663Z,78.60
2019-03-04T04:08:08.988Z,78.80
2019-03-04T04:10:35.329Z,78.70
2019-03-04T04:13:01.449Z,78.70
2019-03-04T04:15:27.904Z,78.30
2019-03-04T04:17:54.140Z,77.70
2019-03-04T04:20:20.619Z,77.00
2019-03-04T04:22:46.841Z,78.50
2019-03-04T04:25:13.984Z,78.40
2019-03-04T04:27:40.224Z,78.60
2019-03-04T04:30:10.750Z,79.00
2019-03-04T04:32:36.962Z,78.40
2019-03-04T04:35:04.506Z,78.60
2019-03-04T04:37:30.635Z,77.90
2019-03-04T04:39:56.867Z,76.40
2019-03-04T04:42:23.085Z,76.00
2019-03-04T04:44:49.256Z,75.30
2019-03-04T04:47:15.523Z,76.00
2019-03-04T04:49:41.870Z,76.40
2019-03-04T04:52:08.304Z,75.10
2019-03-04T04:54:34.462Z,74.30
2019-03-04T04:57:00.685Z,73.50
2019-03-04T04:59:26.886Z,73.70
2019-03-04T05:01:53.213Z,71.20
2019-03-04T05:04:19.489Z,71.60
2019-03-04T05:06:45.830Z,71.20
2019-03-04T05:09:12.146Z,72.10
2019-03-04T05:11:38.315Z,71.40
2019-03-04T05:14:04.654Z,72.50
2019-03-04T05:16:30.901Z,72.60
2019-03-04T05:18:57.110Z,72.80
2019-03-04T05:21:23.259Z,73.10
2019-03-04T05:23:49.474Z,73.70
2019-03-04T05:26:15.630Z,73.90
2019-03-04T05:28:41.854Z,73.90
2019-03-04T05:31:08.006Z,73.50
2019-03-04T05:33:34.123Z,73.70
2019-03-04T05:36:00.258Z,73.50
2019-03-04T05:38:26.605Z,74.40
2019-03-04T05:40:52.853Z,74.10
2019-03-04T05:43:19.082Z,73.90
2019-03-04T05:45:45.549Z,74.30
2019-03-04T05:48:12.242Z,74.90
2019-03-04T05:50:38.477Z,75.40
2019-03-04T05:53:04.802Z,76.10
2019-03-04T05:55:31.065Z,75.90
2019-03-04T05:57:57.251Z,76.10
2019-03-04T06:00:25.596Z,77.10
2019-03-04T06:03:04.287Z,77.40
2019-03-04T06:05:30.659Z,77.40
2019-03-04T06:07:58.777Z,76.30
2019-03-04T06:10:25.155Z,76.00
2019-03-04T06:12:51.477Z,76.40
2019-03-04T06:15:19.007Z,75.90
2019-03-04T06:17:45.486Z,76.10
2019-03-04T06:20:13.928Z,76.00
2019-03-04T06:22:40.281Z,76.10
2019-03-04T06:25:12.406Z,76.20
2019-03-04T06:27:38.727Z,76.60
2019-03-04T06:30:20.167Z,76.50
2019-03-04T06:32:46.401Z,76.30
2019-03-04T06:35:13.244Z,76.50
2019-03-04T06:37:39.591Z,76.70
2019-03-04T06:40:11.492Z,78.00
2019-03-04T06:42:37.988Z,78.90
2019-03-04T06:45:07.575Z,79.30
2019-03-04T06:47:33.797Z,79.40
2019-03-04T06:50:00.106Z,79.30
2019-03-04T06:52:27.890Z,80.30
2019-03-04T06:55:01.494Z,80.10
2019-03-04T06:57:28.893Z,79.90
2019-03-04T07:00:16.877Z,80.70
2019-03-04T07:02:53.364Z,77.20
2019-03-04T07:05:39.875Z,75.30
2019-03-04T07:08:11.183Z,72.80
2019-03-04T07:10:37.455Z,72.00
2019-03-04T07:13:03.702Z,71.30
2019-03-04T07:15:30.102Z,70.10
2019-03-04T07:17:56.314Z,70.00
2019-03-04T07:20:22.668Z,68.60
2019-03-04T07:22:48.901Z,69.50
2019-03-04T07:25:15.282Z,69.30
2019-03-04T07:27:41.564Z,67.90
2019-03-04T07:30:13.758Z,67.70
2019-03-04T07:32:40.176Z,66.80
2019-03-04T07:35:07.743Z,67.50
2019-03-04T07:37:34.066Z,66.30
2019-03-04T07:40:00.336Z,66.40
2019-03-04T07:42:26.543Z,65.30
2019-03-04T07:44:52.822Z,62.80
2019-03-04T07:47:19.082Z,60.00
2019-03-04T07:49:47.835Z,57.50
2019-03-04T07:52:13.955Z,57.00
2019-03-04T07:54:41.272Z,56.70
2019-03-04T07:57:08.373Z,56.90
2019-03-04T07:59:34.740Z,56.00
2019-03-04T08:02:00.991Z,55.40
2019-03-04T08:04:27.158Z,53.20
2019-03-04T08:07:02.691Z,53.70
2019-03-04T08:09:41.851Z,54.40
2019-03-04T08:12:31.853Z,54.50
2019-03-04T08:14:58.105Z,54.60
2019-03-04T08:17:24.479Z,54.70
2019-03-04T08:19:50.900Z,56.00
2019-03-04T08:22:17.827Z,59.50
2019-03-04T08:24:44.154Z,64.60
2019-03-04T08:27:10.305Z,68.20
2019-03-04T08:29:36.683Z,71.80
2019-03-04T08:32:05.327Z,73.80
2019-03-04T08:34:31.577Z,74.50
2019-03-04T08:36:57.833Z,74.80
2019-03-04T08:39:24.046Z,76.00
2019-03-04T08:41:50.379Z,78.30
2019-03-04T08:44:16.530Z,80.20
2019-03-04T08:46:42.821Z,82.50
2019-03-04T08:49:09.088Z,85.10
2019-03-04T08:51:35.519Z,86.40
2019-03-04T08:54:01.660Z,88.80
2019-03-04T08:56:27.874Z,89.00
2019-03-04T08:58:54.035Z,89.30
2019-03-04T09:01:20.231Z,88.50
2019-03-04T09:03:48.210Z,87.80
2019-03-04T09:06:14.897Z,86.20
2019-03-04T09:08:43.295Z,84.10
2019-03-04T09:11:09.659Z,80.60
2019-03-04T09:13:39.232Z,77.80
2019-03-04T09:16:05.593Z,76.10
2019-03-04T09:18:32.128Z,76.00
2019-03-04T09:20:58.457Z,75.60
2019-03-04T09:23:24.900Z,76.50
2019-03-04T09:25:54.955Z,76.10
2019-03-04T09:28:21.199Z,77.40
2019-03-04T09:30:47.531Z,78.80
2019-03-04T09:33:13.825Z,81.20
2019-03-04T09:35:40.365Z,81.60
2019-03-04T09:38:06.584Z,81.50
2019-03-04T09:40:34.423Z,82.50
2019-03-04T09:43:01.584Z,82.20
2019-03-04T09:45:38.050Z,82.30
2019-03-04T09:47:56.259Z,82.60
2019-03-04T09:50:26.666Z,80.50
2019-03-04T09:52:53.121Z,81.50
2019-03-04T09:55:19.862Z,81.10
2019-03-04T09:57:46.014Z,80.80
2019-03-04T10:00:36.430Z,78.70
2019-03-04T10:03:21.682Z,78.80
2019-03-04T10:06:12.445Z,76.90
2019-03-04T10:09:17.553Z,77.10
2019-03-04T10:11:50.608Z,75.30
2019-03-04T10:14:40.325Z,73.80
2019-03-04T10:17:28.498Z,73.80
2019-03-04T10:20:31.967Z,74.90
2019-03-04T10:23:27.857Z,73.30
2019-03-04T10:26:09.883Z,73.80
2019-03-04T10:28:57.998Z,74.00
2019-03-04T10:32:03.373Z,74.50
2019-03-04T10:35:01.718Z,73.30
2019-03-04T10:37:40.748Z,72.20
2019-03-04T10:40:10.810Z,73.70
2019-03-04T10:43:12.823Z,73.20
2019-03-04T10:45:51.724Z,73.30
2019-03-04T10:48:18.007Z,73.60
2019-03-04T10:50:44.670Z,72.30
2019-03-04T10:53:11.000Z,72.70
2019-03-04T10:55:42.588Z,72.80
2019-03-04T10:58:09.004Z,72.30
2019-03-04T11:00:35.470Z,72.00
2019-03-04T11:03:01.603Z,71.60
2019-03-04T11:05:29.498Z,73.00
2019-03-04T11:07:55.687Z,73.10
2019-03-04T11:10:21.857Z,72.50
2019-03-04T11:12:48.083Z,73.10
2019-03-04T11:15:20.114Z,71.90
2019-03-04T11:17:46.395Z,71.60
2019-03-04T11:20:12.740Z,72.50
2019-03-04T11:25:31.216Z,72.10
2019-03-04T11:27:57.680Z,71.70
2019-03-04T11:30:32.927Z,70.10
2019-03-04T11:32:59.374Z,71.40
2019-03-04T11:35:25.687Z,71.00
2019-03-04T11:37:51.843Z,70.20
2019-03-04T11:40:35.125Z,70.70
2019-03-04T11:43:01.235Z,70.20
2019-03-04T11:45:27.483Z,70.30
2019-03-04T11:47:53.748Z,68.70
2019-03-04T11:50:20.093Z,67.70
2019-03-04T11:52:46.551Z,67.40
2019-03-04T11:55:16.115Z,66.40
2019-03-04T11:57:42.339Z,65.70
2019-03-04T12:00:26.766Z,65.40
2019-03-04T12:02:53.233Z,65.70
2019-03-04T12:05:19.580Z,66.70
2019-03-04T12:07:45.912Z,65.70
2019-03-04T12:10:14.774Z,65.50
2019-03-04T12:12:41.234Z,64.70
2019-03-04T12:15:16.286Z,65.30
2019-03-04T12:17:42.675Z,64.40
2019-03-04T12:20:10.947Z,64.00
2019-03-04T12:22:40.214Z,64.40
2019-03-04T12:25:12.537Z,63.70
2019-03-04T12:27:39.092Z,63.50
2019-03-04T12:30:11.914Z,63.50
2019-03-04T12:32:38.371Z,62.90
2019-03-04T12:35:07.433Z,63.00
2019-03-04T12:37:33.662Z,63.10
2019-03-04T12:39:59.969Z,62.80
2019-03-04T12:42:26.266Z,62.10
2019-03-04T12:44:52.503Z,61.30
2019-03-04T12:47:18.801Z,61.30
2019-03-04T12:49:45.149Z,61.10
2019-03-04T12:52:18.078Z,60.60
2019-03-04T12:54:47.731Z,58.80
2019-03-04T12:57:14.116Z,58.80
2019-03-04T12:59:40.493Z,56.30
2019-03-04T13:02:11.687Z,56.40
2019-03-04T13:04:38.003Z,55.60
2019-03-04T13:07:04.500Z,54.50
2019-03-04T13:09:30.839Z,55.30
2019-03-04T13:11:57.066Z,54.30
2019-03-04T13:14:23.214Z,54.60
2019-03-04T13:16:51.409Z,54.70
2019-03-04T13:19:18.433Z,55.30
2019-03-04T13:21:44.670Z,54.00
2019-03-04T13:24:11.138Z,54.70
2019-03-04T13:26:37.536Z,53.90
2019-03-04T13:29:05.001Z,51.80
2019-03-04T13:31:31.330Z,52.90
2019-03-04T13:33:57.623Z,52.20
2019-03-04T13:36:23.879Z,51.60
2019-03-04T13:38:50.348Z,51.10
2019-03-04T13:41:16.629Z,50.70
2019-03-04T13:43:46.192Z,48.20
2019-03-04T13:46:12.536Z,48.10
2019-03-04T13:48:38.717Z,47.10
2019-03-04T13:51:09.056Z,48.90
2019-03-04T13:53:43.576Z,48.90
2019-03-04T13:56:09.926Z,46.90
2019-03-04T13:58:36.191Z,48.10
2019-03-04T14:01:03.903Z,48.10
2019-03-04T14:03:30.280Z,45.90
2019-03-04T14:06:12.493Z,45.90
2019-03-04T14:08:38.834Z,46.90
2019-03-04T14:11:05.184Z,45.80
2019-03-04T14:13:31.576Z,46.70
2019-03-04T14:16:03.294Z,46.20
2019-03-04T14:18:29.519Z,45.30
2019-03-04T14:20:55.852Z,45.80
2019-03-04T14:23:22.566Z,45.50
2019-03-04T14:25:55.246Z,46.40
2019-03-04T14:28:21.468Z,46.70
2019-03-04T14:30:48.727Z,46.10
2019-03-04T14:33:16.009Z,45.20
2019-03-04T14:35:42.312Z,44.20
2019-03-04T14:38:08.546Z,45.60
2019-03-04T14:40:34.668Z,44.50
2019-03-04T14:43:01.011Z,44.00
2019-03-04T14:45:27.699Z,43.10
2019-03-04T14:48:00.183Z,42.50
2019-03-04T14:50:28.442Z,42.70
2019-03-04T14:52:57.610Z,43.20
2019-03-04T14:55:31.968Z,43.60
2019-03-04T14:58:02.121Z,44.60
2019-03-04T15:00:43.149Z,43.10
2019-03-04T15:03:23.251Z,43.20
2019-03-04T15:05:44.304Z,42.40
2019-03-04T15:08:14.055Z,43.20
2019-03-04T15:10:51.968Z,43.70
2019-03-04T15:13:14.102Z,44.40
2019-03-04T15:15:40.568Z,44.50
2019-03-04T15:18:07.021Z,45.50
2019-03-04T15:20:43.097Z,46.20
2019-03-04T15:23:11.834Z,47.80
2019-03-04T15:25:40.451Z,48.00
2019-03-04T15:28:12.515Z,48.50
2019-03-04T15:30:40.085Z,48.70
2019-03-04T15:33:06.387Z,48.90
2019-03-04T15:35:32.677Z,48.80
2019-03-04T15:37:58.999Z,49.10
2019-03-04T15:40:26.794Z,49.50
2019-03-04T15:42:54.176Z,49.80
2019-03-04T15:45:20.515Z,49.80
2019-03-04T15:47:46.971Z,49.90
2019-03-04T15:50:13.635Z,50.40
2019-03-04T15:52:40.043Z,50.30
2019-03-04T15:55:10.517Z,51.20
2019-03-04T15:57:36.888Z,53.20
2019-03-04T16:00:06.914Z,56.50
2019-03-04T16:02:33.223Z,58.90
2019-03-04T16:04:59.373Z,64.30
2019-03-04T16:07:25.834Z,76.10
2019-03-04T16:09:52.172Z,85.40
2019-03-04T16:12:20.527Z,88.80
2019-03-04T16:14:46.905Z,90.40
2019-03-04T16:17:13.207Z,90.90
2019-03-04T16:19:39.374Z,91.30
2019-03-04T16:22:05.804Z,91.70
2019-03-04T16:24:32.239Z,92.20
2019-03-04T16:27:05.500Z,92.40
2019-03-04T16:29:37.061Z,92.20
2019-03-04T16:31:59.937Z,92.10
2019-03-04T16:34:26.289Z,92.10
2019-03-04T16:36:52.695Z,92.20
2019-03-04T16:39:19.674Z,92.30
2019-03-04T16:41:46.180Z,91.90
2019-03-04T16:44:12.435Z,92.00
2019-03-04T16:46:38.696Z,92.40
2019-03-04T16:49:05.330Z,92.20
2019-03-04T16:51:31.701Z,92.60
2019-03-04T16:53:58.078Z,92.70
2019-03-04T16:56:29.774Z,92.70
2019-03-04T16:58:56.140Z,92.40
2019-03-04T17:01:22.380Z,92.80
2019-03-04T17:03:48.611Z,93.30
2019-03-04T17:06:14.806Z,93.60
2019-03-04T17:08:41.044Z,93.30
2019-03-04T17:11:07.592Z,93.60
2019-03-04T17:13:33.751Z,93.60
2019-03-04T17:16:00.071Z,93.60
2019-03-04T17:18:26.437Z,93.80
2019-03-04T17:20:52.671Z,94.00
2019-03-04T17:23:18.914Z,94.10
2019-03-04T17:25:45.260Z,94.20
2019-03-04T17:28:11.492Z,94.50
2019-03-04T17:30:37.859Z,94.90
2019-03-04T17:33:04.097Z,94.90
2019-03-04T17:35:30.431Z,94.60
2019-03-04T17:37:56.769Z,94.60
2019-03-04T17:40:27.346Z,94.80
2019-03-04T17:42:53.701Z,94.80
2019-03-04T17:45:21.246Z,94.60
2019-03-04T17:47:47.616Z,94.80
2019-03-04T17:50:26.677Z,94.80
2019-03-04T17:52:52.898Z,94.70
2019-03-04T17:55:19.436Z,94.70
2019-03-04T17:57:45.677Z,94.40
2019-03-04T18:00:17.374Z,94.10
2019-03-04T18:02:43.902Z,94.30
2019-03-04T18:05:10.346Z,94.30
2019-03-04T18:07:36.658Z,94.00
2019-03-04T18:10:05.602Z,94.10
2019-03-04T18:12:31.840Z,93.90
2019-03-04T18:14:57.997Z,93.80
2019-03-04T18:17:24.267Z,93.50
2019-03-04T18:19:50.489Z,93.50
2019-03-04T18:22:16.740Z,93.60
2019-03-04T18:24:43.182Z,93.30
2019-03-04T18:27:09.537Z,93.00
2019-03-04T18:29:48.568Z,93.00
2019-03-04T18:32:21.496Z,92.90
2019-03-04T18:34:57.375Z,92.40
2019-03-04T18:37:44.065Z,92.60
2019-03-04T18:40:22.905Z,93.40
2019-03-04T18:42:58.732Z,93.00
2019-03-04T18:45:37.489Z,92.80
2019-03-04T18:48:34.897Z,92.90
2019-03-04T18:51:01.041Z,93.30
2019-03-04T18:53:27.262Z,93.30
2019-03-04T18:55:53.521Z,93.10
2019-03-04T18:58:19.753Z,93.20
2019-03-04T19:00:46.297Z,93.30
2019-03-04T19:03:12.479Z,93.00
2019-03-04T19:05:38.796Z,92.90
2019-03-04T19:08:05.132Z,92.90
2019-03-04T19:10:31.499Z,92.90
2019-03-04T19:12:57.927Z,93.00
2019-03-04T19:15:24.161Z,93.10
2019-03-04T19:17:50.284Z,93.10
2019-03-04T19:20:20.349Z,93.30
2019-03-04T19:22:46.655Z,93.60
2019-03-04T19:25:13.171Z,94.10
2019-03-04T19:27:39.386Z,94.80
2019-03-04T19:30:08.401Z,95.10
2019-03-04T19:32:34.535Z,95.40
2019-03-04T19:35:00.755Z,95.50
2019-03-04T19:37:27.015Z,95.70
2019-03-04T19:39:53.295Z,95.90
2019-03-04T19:42:19.536Z,95.90
2019-03-04T19:44:45.934Z,96.10
2019-03-04T19:47:12.258Z,96.30
2019-03-04T19:49:38.695Z,96.20
2019-03-04T19:52:05.060Z,95.70
2019-03-04T19:54:31.272Z,95.70
2019-03-04T19:56:58.068Z,96.20
2019-03-04T19:59:24.510Z,96.00
2019-03-04T20:01:50.898Z,95.30
2019-03-04T20:04:17.324Z,95.30
2019-03-04T20:06:43.539Z,95.60
2019-03-04T20:09:09.998Z,95.30
2019-03-04T20:11:36.518Z,95.60
2019-03-04T20:14:03.291Z,95.60
2019-03-04T20:16:29.716Z,95.60
2019-03-04T20:18:56.117Z,95.70
2019-03-04T20:21:22.345Z,96.00
2019-03-04T20:23:48.828Z,95.90
2019-03-04T20:26:16.034Z,95.90
2019-03-04T20:28:42.463Z,96.20
2019-03-04T20:31:08.812Z,96.10
2019-03-04T20:33:35.124Z,96.40
2019-03-04T20:36:01.454Z,96.30
2019-03-04T20:38:31.088Z,96.50
2019-03-04T20:40:57.352Z,96.50
2019-03-04T20:43:23.627Z,97.20
2019-03-04T20:45:49.849Z,96.70
2019-03-04T20:48:16.132Z,96.60
2019-03-04T20:50:42.664Z,96.60
2019-03-04T20:53:09.102Z,96.50
2019-03-04T20:55:35.470Z,96.60
2019-03-04T20:58:01.978Z,96.80
2019-03-04T21:00:39.279Z,96.70
2019-03-04T21:03:06.942Z,97.00
2019-03-04T21:05:35.507Z,96.60
2019-03-04T21:08:01.908Z,96.70
2019-03-04T21:10:28.287Z,96.60
2019-03-04T21:12:56.612Z,97.10
2019-03-04T21:15:23.030Z,97.10
2019-03-04T21:17:49.300Z,96.90
2019-03-04T21:20:16.873Z,97.20
2019-03-04T21:22:43.835Z,96.90
2019-03-04T21:25:33.687Z,97.30
2019-03-04T21:28:00.585Z,97.30
2019-03-04T21:30:56.430Z,97.20
2019-03-04T21:33:26.395Z,97.20
2019-03-04T21:36:02.646Z,97.10
2019-03-04T21:38:29.237Z,97.20
2019-03-04T21:41:00.575Z,97.10
2019-03-04T21:43:33.630Z,97.10
2019-03-04T21:46:06.628Z,97.20
2019-03-04T21:48:42.035Z,97.10
2019-03-04T21:51:23.975Z,97.10
2019-03-04T21:53:51.119Z,97.00
2019-03-04T21:56:36.064Z,97.00
2019-03-04T21:59:05.187Z,97.10
2019-03-04T22:01:38.119Z,97.10
2019-03-04T22:04:04.525Z,97.10
2019-03-04T22:06:30.752Z,97.20
2019-03-04T22:08:56.883Z,97.10
2019-03-04T22:11:23.155Z,97.30
2019-03-04T22:13:49.746Z,97.00
2019-03-04T22:16:16.116Z,96.90
2019-03-04T22:18:42.497Z,96.70
2019-03-04T22:21:16.551Z,96.90
2019-03-04T22:23:37.121Z,96.60
2019-03-04T22:26:03.464Z,96.50
2019-03-04T22:28:32.402Z,96.20
2019-03-04T22:30:58.718Z,95.70
2019-03-04T22:33:24.972Z,95.50
2019-03-04T22:35:51.101Z,95.40
2019-03-04T22:38:17.361Z,95.60
2019-03-04T22:40:44.480Z,95.50
2019-03-04T22:43:10.959Z,95.40
2019-03-04T22:45:37.227Z,95.20
2019-03-04T22:48:03.667Z,95.00
2019-03-04T22:50:29.931Z,94.70
2019-03-04T22:52:56.141Z,94.70
2019-03-04T22:55:31.671Z,94.70
2019-03-04T22:57:57.849Z,94.50
2019-03-04T23:00:41.760Z,94.40
2019-03-04T23:03:08.194Z,94.30
2019-03-04T23:05:34.533Z,94.30
2019-03-04T23:08:00.782Z,94.30
2019-03-04T23:10:36.665Z,94.30
2019-03-04T23:13:06.336Z,94.30
2019-03-04T23:15:32.699Z,94.10
2019-03-04T23:17:58.873Z,94.00
2019-03-04T23:20:25.132Z,93.90
2019-03-04T23:22:55.520Z,94.00
2019-03-04T23:25:23.220Z,93.80
2019-03-04T23:27:49.462Z,93.70
2019-03-04T23:30:15.905Z,93.70
2019-03-04T23:32:42.145Z,93.80
2019-03-04T23:35:08.696Z,93.80
2019-03-04T23:37:35.121Z,94.00
2019-03-04T23:40:01.443Z,93.90
2019-03-04T23:42:27.869Z,94.00
2019-03-04T23:44:54.820Z,93.80
2019-03-04T23:47:21.062Z,93.80
2019-03-04T23:49:51.079Z,94.00
2019-03-04T23:52:17.227Z,94.00
2019-03-04T23:54:43.475Z,93.90
2019-03-04T23:57:09.843Z,94.00
2019-03-04T23:59:35.992Z,94.00
